Time;durP1;ratioP1;P1;durP2;ratioP2;P2;SDS_P1;SDS_P2;PMS_P1;PMS_P2;Temp;Humidity;BMP_temperature;BMP_pressure;BME280_temperature;BME280_humidity;BME280_pressure;Samples;Min_cycle;Max_cycle;Signal;HPM_P1;HPM_P2
2023/07/23 00:08:37;;;;;;;10.60;6.50;;;;;;;14.01;89.96;100173.86;675398;1263;140419;-79
2023/07/23 00:23:40;;;;;;;11.40;6.40;;;;;;;14.20;88.89;100161.06;680382;1259;140295;-79
2023/07/23 00:38:43;;;;;;;12.80;6.40;;;;;;;14.02;89.06;100147.95;677172;1263;140658;-80
2023/07/23 00:53:48;;;;;;;10.00;6.00;;;;;;;14.02;89.28;100146.38;679778;1263;140211;-79
2023/07/23 01:08:55;;;;;;;10.30;5.90;;;;;;;13.95;89.06;100136.40;675000;1261;140857;-79
2023/07/23 01:23:58;;;;;;;11.00;6.40;;;;;;;14.10;88.26;100135.30;677115;1263;141278;-79
2023/07/23 01:39:01;;;;;;;12.40;6.60;;;;;;;14.49;85.01;100118.59;678689;1263;139949;-78
2023/07/23 01:54:05;;;;;;;14.80;8.80;;;;;;;14.36;85.01;100117.11;677796;1258;139608;-78
2023/07/23 02:09:08;;;;;;;16.80;8.30;;;;;;;14.13;86.15;100105.35;677660;1263;140489;-79
2023/07/23 02:24:11;;;;;;;17.80;9.80;;;;;;;13.95;86.36;100091.58;676410;1263;141967;-79
2023/07/23 02:39:14;;;;;;;26.00;9.60;;;;;;;13.59;88.87;100090.05;673815;1263;139591;-79
2023/07/23 02:54:17;;;;;;;12.10;7.60;;;;;;;13.63;89.29;100083.77;677590;1260;139899;-79
2023/07/23 03:09:21;;;;;;;16.10;7.80;;;;;;;13.73;91.32;100073.98;678894;1258;140061;-78
2023/07/23 03:24:24;;;;;;;10.70;6.80;;;;;;;14.05;94.17;100060.55;674178;1263;140257;-78
2023/07/23 03:39:27;;;;;;;9.80;5.80;;;;;;;14.67;92.93;100049.41;676906;1263;139290;-79
2023/07/23 03:54:31;;;;;;;11.80;6.00;;;;;;;15.22;92.61;100042.36;677484;1260;140748;-78
2023/07/23 04:09:35;;;;;;;9.50;5.80;;;;;;;15.65;91.52;100046.86;679124;1263;140021;-79
2023/07/23 04:24:38;;;;;;;8.50;5.40;;;;;;;16.37;87.92;100048.98;673421;1263;140556;-78
2023/07/23 04:39:41;;;;;;;8.60;5.50;;;;;;;16.78;84.99;100062.54;679257;1258;139075;-79
2023/07/23 04:54:45;;;;;;;9.90;6.60;;;;;;;17.20;83.09;100059.88;678510;1262;140526;-79
2023/07/23 05:09:48;;;;;;;13.10;5.90;;;;;;;17.31;83.65;100060.98;671663;1263;140900;-78
2023/07/23 05:24:51;;;;;;;9.40;5.90;;;;;;;18.08;79.96;100057.00;676253;1260;140127;-79
2023/07/23 05:39:55;;;;;;;12.30;5.70;;;;;;;18.93;77.95;100065.20;674482;1263;139135;-79
2023/07/23 05:54:58;;;;;;;7.60;4.80;;;;;;;19.39;75.12;100054.44;673857;1260;141517;-78
2023/07/23 06:10:02;;;;;;;9.00;5.10;;;;;;;19.53;73.42;100045.67;673280;1267;139090;-79
2023/07/23 06:25:05;;;;;;;7.50;5.10;;;;;;;19.72;73.18;100040.07;675546;1261;140991;-79
2023/07/23 06:40:09;;;;;;;9.50;5.90;;;;;;;20.01;71.58;100039.59;676790;1262;139314;-79
2023/07/23 06:55:13;;;;;;;10.10;5.90;;;;;;;19.97;71.63;100024.22;674410;1264;139201;-79
2023/07/23 07:10:17;;;;;;;10.60;5.30;;;;;;;20.55;70.81;100014.40;675077;1262;138953;-78
2023/07/23 07:25:20;;;;;;;9.60;5.30;;;;;;;21.17;69.73;99995.92;672960;1261;140796;-79
2023/07/23 07:40:23;;;;;;;5.40;4.30;;;;;;;21.88;66.93;99978.89;678864;1259;139640;-79
2023/07/23 07:55:27;;;;;;;7.70;4.50;;;;;;;22.78;63.05;99951.20;677370;1258;139078;-80
2023/07/23 08:10:33;;;;;;;6.50;4.50;;;;;;;23.55;59.34;99920.30;677601;1261;138871;-79
2023/07/23 08:25:37;;;;;;;5.50;3.90;;;;;;;23.92;56.83;99888.39;675109;1258;139372;-82
2023/07/23 08:40:43;;;;;;;7.00;3.90;;;;;;;24.15;55.34;99874.55;672530;1260;139398;-80
2023/07/23 08:55:47;;;;;;;6.60;3.90;;;;;;;22.95;57.49;99888.09;678927;1259;139440;-80
2023/07/23 09:10:50;;;;;;;5.40;3.60;;;;;;;22.20;60.09;99924.25;676203;1262;138827;-79
2023/07/23 09:25:57;;;;;;;5.40;3.90;;;;;;;21.87;61.10;99929.77;674455;1262;138913;-80
2023/07/23 09:41:00;;;;;;;5.10;3.90;;;;;;;21.94;61.61;99911.02;678755;1263;139770;-80
2023/07/23 09:56:04;;;;;;;6.50;4.10;;;;;;;21.98;62.65;99890.33;674618;1261;138782;-79
2023/07/23 10:11:12;;;;;;;8.30;4.10;;;;;;;21.98;63.32;99871.47;672688;1273;138229;-80
2023/07/23 10:26:21;;;;;;;5.10;3.50;;;;;;;22.65;62.98;99863.44;674487;1260;138930;-79
2023/07/23 10:54:02;;;;;;;9.00;5.20;;;;;;;26.04;56.85;99829.32;660897;1297;544983;-80
2023/07/23 11:09:13;;;;;;;13.00;4.70;;;;;;;27.77;51.28;99816.29;673010;1284;138258;-80
2023/07/23 11:24:18;;;;;;;6.00;4.60;;;;;;;27.88;51.00;99798.94;669187;1274;138807;-79
2023/07/23 11:39:24;;;;;;;9.20;4.70;;;;;;;27.15;52.39;99787.79;673937;1272;137929;-80
2023/07/23 11:54:27;;;;;;;7.20;5.00;;;;;;;26.24;53.87;99776.91;671442;1272;138918;-78
2023/07/23 12:09:34;;;;;;;8.70;5.10;;;;;;;25.39;55.59;99767.16;672136;1270;138759;-80
2023/07/23 12:24:38;;;;;;;9.40;5.40;;;;;;;24.99;55.92;99757.07;670843;1271;137666;-78
2023/07/23 12:39:42;;;;;;;8.80;5.10;;;;;;;24.56;57.63;99755.00;669405;1282;137892;-79
2023/07/23 12:54:45;;;;;;;7.50;4.40;;;;;;;24.45;57.82;99755.13;668924;1269;138129;-79
2023/07/23 13:09:50;;;;;;;6.40;4.70;;;;;;;24.81;57.09;99747.94;669314;1273;137720;-79
2023/07/23 13:24:53;;;;;;;8.30;4.90;;;;;;;25.30;56.42;99745.66;670896;1269;139320;-80
2023/07/23 13:39:56;;;;;;;6.50;4.90;;;;;;;25.39;55.91;99743.59;671904;1272;138631;-80
2023/07/23 13:55:03;;;;;;;7.80;5.00;;;;;;;25.46;56.61;99744.48;673772;1263;139034;-80
2023/07/23 14:10:07;;;;;;;8.10;5.00;;;;;;;25.82;55.87;99741.20;672825;1270;138406;-84
2023/07/23 14:25:10;;;;;;;8.20;4.90;;;;;;;25.74;57.35;99731.73;674854;1260;138840;-79
2023/07/23 14:40:14;;;;;;;17.00;8.80;;;;;;;26.02;57.47;99737.77;673529;1269;138225;-78
2023/07/23 14:55:21;;;;;;;8.80;5.00;;;;;;;25.76;58.06;99737.02;673025;1259;139707;-79
2023/07/23 15:24:01;;;;;;;8.20;4.40;;;;;;;25.30;60.21;99743.99;657059;1300;544913;-78
2023/07/23 15:39:04;;;;;;;8.90;4.20;;;;;;;25.23;60.94;99743.24;670108;1275;139035;-77
2023/07/23 15:54:08;;;;;;;9.40;5.50;;;;;;;25.39;60.96;99737.29;670866;1275;138997;-77
2023/07/23 16:09:12;;;;;;;5.90;3.90;;;;;;;25.28;61.04;99733.82;678528;1264;139833;-78
2023/07/23 16:24:15;;;;;;;5.40;4.00;;;;;;;25.27;61.40;99727.80;679483;1263;138836;-79
2023/07/23 16:39:20;;;;;;;5.80;4.00;;;;;;;24.94;62.00;99724.35;679776;1269;138422;-78
2023/07/23 16:54:24;;;;;;;7.90;4.60;;;;;;;24.78;62.50;99716.95;680184;1266;138134;-79
2023/07/23 17:09:27;;;;;;;7.80;4.60;;;;;;;24.57;62.91;99712.88;678368;1277;139048;-79
2023/07/23 17:24:31;;;;;;;8.60;4.70;;;;;;;24.46;63.52;99689.15;680502;1266;138110;-79
2023/07/23 17:39:34;;;;;;;61.50;21.50;;;;;;;24.22;65.12;99677.24;679284;1266;138451;-78
2023/07/23 17:54:37;;;;;;;23.50;11.60;;;;;;;23.70;66.98;99653.70;679794;1266;139825;-78
2023/07/23 18:09:41;;;;;;;9.30;5.00;;;;;;;23.28;68.07;99634.80;677091;1266;138757;-79
2023/07/23 18:24:44;;;;;;;13.10;5.40;;;;;;;22.80;68.74;99576.60;676994;1266;139171;-79
2023/07/23 18:39:48;;;;;;;8.30;5.10;;;;;;;22.59;69.62;99584.35;675637;1266;138124;-79
2023/07/23 18:54:51;;;;;;;17.00;6.90;;;;;;;22.51;69.54;99595.25;675930;1263;138279;-79
2023/07/23 19:09:55;;;;;;;15.40;8.40;;;;;;;22.07;72.46;99607.37;676866;1266;138333;-79
2023/07/23 19:25:01;;;;;;;10.20;5.70;;;;;;;21.56;76.51;99602.11;672906;1267;138685;-79
2023/07/23 19:40:04;;;;;;;11.80;6.90;;;;;;;21.22;78.07;99585.90;677959;1261;139149;-79
2023/07/23 20:01:12;;;;;;;11.00;6.20;;;;;;;21.02;80.44;99586.70;655253;1314;545863;-78
2023/07/23 20:16:15;;;;;;;10.60;6.40;;;;;;;20.82;81.15;99627.61;672571;1282;139510;-79
2023/07/23 20:31:22;;;;;;;13.00;6.30;;;;;;;20.59;82.35;99628.92;672580;1270;138985;-79
2023/07/23 20:46:26;;;;;;;11.60;6.10;;;;;;;20.54;83.85;99618.83;670764;1279;138861;-78
2023/07/23 21:01:30;;;;;;;9.70;5.80;;;;;;;20.35;84.92;99612.74;673148;1264;139163;-78
2023/07/23 21:16:33;;;;;;;8.40;5.50;;;;;;;20.21;85.16;99605.34;675270;1263;139576;-80
2023/07/23 21:31:37;;;;;;;7.50;4.90;;;;;;;20.23;85.96;99590.45;672872;1264;138687;-78
2023/07/23 21:46:40;;;;;;;6.60;5.10;;;;;;;20.23;85.49;99572.18;675297;1278;138907;-80
2023/07/23 22:01:44;;;;;;;9.00;5.60;;;;;;;20.24;85.15;99545.11;675196;1265;139462;-79
2023/07/23 22:16:47;;;;;;;10.00;5.40;;;;;;;20.23;85.27;99525.20;673477;1263;138686;-78
2023/07/23 22:31:50;;;;;;;10.00;5.50;;;;;;;20.11;85.66;99516.70;675109;1265;139621;-79
2023/07/23 22:46:54;;;;;;;7.70;5.40;;;;;;;20.07;85.28;99519.80;675107;1265;138738;-79
2023/07/23 23:01:58;;;;;;;13.50;8.40;;;;;;;19.88;85.78;99519.02;674129;1265;139528;-78
2023/07/23 23:17:01;;;;;;;13.50;6.60;;;;;;;19.30;88.14;99511.70;672885;1266;140060;-78
2023/07/23 23:32:06;;;;;;;9.00;6.30;;;;;;;19.03;88.95;99497.03;673487;1262;138579;-78
2023/07/23 23:47:09;;;;;;;7.90;5.60;;;;;;;18.55;90.50;99484.27;673803;1265;139059;-79
